Terminal Aerodrome Forecast
Issued by NWS Melbourne, FL

Current Version | Previous Version | Text Only | Print | Product List | Glossary On
Versions: 1 2 3 4 5 6 7 8 9 10 11 12 13 14 15 16 17 18 19 20 21 22 23 24 25 26 27 28 29 30 31 32
000
FTUS42 KMLB 270527
TAFDAB
TAF
KDAB 270527Z 2706/2806 31010KT P6SM -RA FEW009 BKN060 OVC090
      TEMPO 2706/2708 BKN009
     FM270900 30009KT P6SM SCT035 OVC120
     FM271200 31011G17KT P6SM SKC
     FM280100 30004KT P6SM SKC=

USA.gov is the U.S. government's official web portal to all federal, state and local government web resources and services.